sensor_id;sensor_type;location;lat;lon;timestamp;P1;durP1;ratioP1;P2;durP2;ratioP2
72493;SDS011;60520;49.182;-0.348;2023-02-01T00:00:14;3.05;;;1.50;;
72493;SDS011;60520;49.182;-0.348;2023-02-01T00:02:41;3.80;;;1.58;;
72493;SDS011;60520;49.182;-0.348;2023-02-01T00:05:08;3.15;;;1.40;;
72493;SDS011;60520;49.182;-0.348;2023-02-01T00:07:36;2.97;;;1.30;;
72493;SDS011;60520;49.182;-0.348;2023-02-01T00:10:05;2.83;;;1.20;;
72493;SDS011;60520;49.182;-0.348;2023-02-01T00:12:33;2.45;;;1.25;;
72493;SDS011;60520;49.182;-0.348;2023-02-01T00:15:00;2.90;;;1.30;;
72493;SDS011;60520;49.182;-0.348;2023-02-01T00:17:27;3.22;;;1.08;;
72493;SDS011;60520;49.182;-0.348;2023-02-01T00:19:54;3.78;;;1.60;;
72493;SDS011;60520;49.182;-0.348;2023-02-01T00:22:21;3.92;;;1.15;;
72493;SDS011;60520;49.182;-0.348;2023-02-01T00:24:48;4.13;;;1.50;;
72493;SDS011;60520;49.182;-0.348;2023-02-01T00:27:17;2.50;;;1.20;;
72493;SDS011;60520;49.182;-0.348;2023-02-01T00:29:46;4.57;;;1.38;;
72493;SDS011;60520;49.182;-0.348;2023-02-01T00:32:13;3.50;;;1.20;;
72493;SDS011;60520;49.182;-0.348;2023-02-01T00:34:40;4.43;;;1.65;;
72493;SDS011;60520;49.182;-0.348;2023-02-01T00:37:07;3.13;;;1.55;;
72493;SDS011;60520;49.182;-0.348;2023-02-01T00:39:34;2.50;;;1.17;;
72493;SDS011;60520;49.182;-0.348;2023-02-01T00:42:01;4.15;;;1.30;;
72493;SDS011;60520;49.182;-0.348;2023-02-01T00:44:30;3.40;;;1.20;;
72493;SDS011;60520;49.182;-0.348;2023-02-01T00:46:59;4.00;;;1.30;;
72493;SDS011;60520;49.182;-0.348;2023-02-01T00:49:26;5.75;;;1.50;;
72493;SDS011;60520;49.182;-0.348;2023-02-01T00:51:54;2.95;;;1.40;;
72493;SDS011;60520;49.182;-0.348;2023-02-01T00:54:21;3.78;;;1.77;;
72493;SDS011;60520;49.182;-0.348;2023-02-01T00:56:48;3.03;;;1.30;;
72493;SDS011;60520;49.182;-0.348;2023-02-01T00:59:15;2.95;;;1.08;;
72493;SDS011;60520;49.182;-0.348;2023-02-01T01:01:44;3.78;;;1.40;;
72493;SDS011;60520;49.182;-0.348;2023-02-01T01:04:11;2.58;;;1.17;;
72493;SDS011;60520;49.182;-0.348;2023-02-01T01:06:38;2.92;;;1.42;;
72493;SDS011;60520;49.182;-0.348;2023-02-01T01:09:06;2.42;;;1.27;;
72493;SDS011;60520;49.182;-0.348;2023-02-01T01:11:35;3.42;;;1.40;;
72493;SDS011;60520;49.182;-0.348;2023-02-01T01:14:02;5.72;;;1.42;;
72493;SDS011;60520;49.182;-0.348;2023-02-01T01:16:30;3.75;;;1.45;;
72493;SDS011;60520;49.182;-0.348;2023-02-01T01:18:59;3.08;;;1.52;;
72493;SDS011;60520;49.182;-0.348;2023-02-01T01:21:27;4.60;;;1.50;;
72493;SDS011;60520;49.182;-0.348;2023-02-01T01:23:54;2.50;;;1.15;;
72493;SDS011;60520;49.182;-0.348;2023-02-01T01:26:22;3.17;;;1.40;;
72493;SDS011;60520;49.182;-0.348;2023-02-01T01:28:50;3.42;;;1.50;;
72493;SDS011;60520;49.182;-0.348;2023-02-01T01:31:17;2.80;;;1.30;;
72493;SDS011;60520;49.182;-0.348;2023-02-01T01:33:47;2.95;;;1.25;;
72493;SDS011;60520;49.182;-0.348;2023-02-01T01:36:16;5.10;;;1.50;;
72493;SDS011;60520;49.182;-0.348;2023-02-01T01:38:43;3.55;;;1.50;;
72493;SDS011;60520;49.182;-0.348;2023-02-01T01:41:12;1.83;;;1.20;;
72493;SDS011;60520;49.182;-0.348;2023-02-01T01:43:46;4.40;;;1.70;;
72493;SDS011;60520;49.182;-0.348;2023-02-01T01:46:15;2.78;;;1.23;;
72493;SDS011;60520;49.182;-0.348;2023-02-01T01:48:42;3.50;;;1.48;;
72493;SDS011;60520;49.182;-0.348;2023-02-01T01:51:10;4.07;;;1.25;;
72493;SDS011;60520;49.182;-0.348;2023-02-01T01:53:40;2.80;;;1.23;;
72493;SDS011;60520;49.182;-0.348;2023-02-01T01:56:09;3.78;;;1.65;;
72493;SDS011;60520;49.182;-0.348;2023-02-01T01:58:36;4.68;;;1.55;;
72493;SDS011;60520;49.182;-0.348;2023-02-01T02:01:04;3.25;;;1.50;;
72493;SDS011;60520;49.182;-0.348;2023-02-01T02:03:32;4.90;;;1.45;;
72493;SDS011;60520;49.182;-0.348;2023-02-01T02:06:02;3.35;;;1.38;;
72493;SDS011;60520;49.182;-0.348;2023-02-01T02:08:30;3.70;;;1.55;;
72493;SDS011;60520;49.182;-0.348;2023-02-01T02:10:58;4.60;;;1.40;;
72493;SDS011;60520;49.182;-0.348;2023-02-01T02:13:26;4.75;;;1.80;;
72493;SDS011;60520;49.182;-0.348;2023-02-01T02:15:57;3.30;;;1.25;;
72493;SDS011;60520;49.182;-0.348;2023-02-01T02:18:27;3.72;;;1.20;;
72493;SDS011;60520;49.182;-0.348;2023-02-01T02:21:14;4.03;;;1.60;;
72493;SDS011;60520;49.182;-0.348;2023-02-01T02:26:35;2.67;;;1.27;;
72493;SDS011;60520;49.182;-0.348;2023-02-01T02:31:59;3.35;;;1.50;;
72493;SDS011;60520;49.182;-0.348;2023-02-01T02:34:31;3.25;;;1.42;;
72493;SDS011;60520;49.182;-0.348;2023-02-01T02:37:03;2.35;;;1.25;;
72493;SDS011;60520;49.182;-0.348;2023-02-01T02:39:34;4.03;;;1.30;;
72493;SDS011;60520;49.182;-0.348;2023-02-01T02:42:05;3.00;;;1.48;;
72493;SDS011;60520;49.182;-0.348;2023-02-01T02:44:53;4.60;;;1.55;;
72493;SDS011;60520;49.182;-0.348;2023-02-01T02:47:41;3.28;;;1.42;;
72493;SDS011;60520;49.182;-0.348;2023-02-01T02:50:12;5.07;;;1.50;;
72493;SDS011;60520;49.182;-0.348;2023-02-01T02:53:00;2.70;;;1.38;;
72493;SDS011;60520;49.182;-0.348;2023-02-01T02:55:47;3.38;;;1.30;;
72493;SDS011;60520;49.182;-0.348;2023-02-01T02:58:14;4.30;;;1.50;;
72493;SDS011;60520;49.182;-0.348;2023-02-01T03:00:59;3.67;;;1.40;;
72493;SDS011;60520;49.182;-0.348;2023-02-01T03:03:45;3.90;;;1.55;;
72493;SDS011;60520;49.182;-0.348;2023-02-01T03:06:36;4.45;;;1.83;;
72493;SDS011;60520;49.182;-0.348;2023-02-01T03:09:06;3.80;;;1.50;;
72493;SDS011;60520;49.182;-0.348;2023-02-01T03:11:35;2.92;;;1.20;;
72493;SDS011;60520;49.182;-0.348;2023-02-01T03:14:21;3.70;;;1.52;;
72493;SDS011;60520;49.182;-0.348;2023-02-01T03:16:50;4.20;;;1.48;;
72493;SDS011;60520;49.182;-0.348;2023-02-01T03:19:18;3.95;;;1.70;;
72493;SDS011;60520;49.182;-0.348;2023-02-01T03:21:48;6.15;;;1.80;;
72493;SDS011;60520;49.182;-0.348;2023-02-01T03:24:18;4.78;;;1.50;;
72493;SDS011;60520;49.182;-0.348;2023-02-01T03:26:47;5.20;;;1.73;;
72493;SDS011;60520;49.182;-0.348;2023-02-01T03:29:17;4.25;;;1.55;;
72493;SDS011;60520;49.182;-0.348;2023-02-01T03:31:45;4.50;;;1.48;;
72493;SDS011;60520;49.182;-0.348;2023-02-01T03:34:12;3.75;;;1.38;;
72493;SDS011;60520;49.182;-0.348;2023-02-01T03:36:40;4.65;;;1.52;;
72493;SDS011;60520;49.182;-0.348;2023-02-01T03:39:13;4.13;;;1.30;;
72493;SDS011;60520;49.182;-0.348;2023-02-01T03:41:45;2.88;;;1.52;;
72493;SDS011;60520;49.182;-0.348;2023-02-01T03:44:16;4.85;;;1.77;;
72493;SDS011;60520;49.182;-0.348;2023-02-01T03:46:47;4.18;;;1.33;;
72493;SDS011;60520;49.182;-0.348;2023-02-01T03:49:17;5.07;;;1.70;;
72493;SDS011;60520;49.182;-0.348;2023-02-01T03:51:45;4.20;;;1.35;;
72493;SDS011;60520;49.182;-0.348;2023-02-01T03:54:15;4.15;;;1.40;;
72493;SDS011;60520;49.182;-0.348;2023-02-01T03:56:43;4.70;;;1.60;;
72493;SDS011;60520;49.182;-0.348;2023-02-01T03:59:11;4.72;;;1.50;;
72493;SDS011;60520;49.182;-0.348;2023-02-01T04:01:38;2.75;;;1.48;;
72493;SDS011;60520;49.182;-0.348;2023-02-01T04:04:06;3.28;;;1.30;;
72493;SDS011;60520;49.182;-0.348;2023-02-01T04:06:34;5.10;;;1.40;;
72493;SDS011;60520;49.182;-0.348;2023-02-01T04:09:04;3.78;;;1.52;;
72493;SDS011;60520;49.182;-0.348;2023-02-01T04:11:32;4.72;;;1.50;;
72493;SDS011;60520;49.182;-0.348;2023-02-01T04:13:59;5.45;;;1.83;;
72493;SDS011;60520;49.182;-0.348;2023-02-01T04:16:29;5.35;;;1.65;;
72493;SDS011;60520;49.182;-0.348;2023-02-01T04:18:56;4.22;;;1.80;;
72493;SDS011;60520;49.182;-0.348;2023-02-01T04:21:24;3.58;;;1.42;;
72493;SDS011;60520;49.182;-0.348;2023-02-01T04:23:52;5.28;;;1.65;;
72493;SDS011;60520;49.182;-0.348;2023-02-01T04:26:19;4.15;;;1.65;;
72493;SDS011;60520;49.182;-0.348;2023-02-01T04:28:48;3.90;;;1.45;;
72493;SDS011;60520;49.182;-0.348;2023-02-01T04:31:16;3.97;;;1.50;;
72493;SDS011;60520;49.182;-0.348;2023-02-01T04:33:50;5.13;;;1.70;;
72493;SDS011;60520;49.182;-0.348;2023-02-01T04:36:17;3.95;;;1.20;;
72493;SDS011;60520;49.182;-0.348;2023-02-01T04:38:46;3.72;;;1.50;;
72493;SDS011;60520;49.182;-0.348;2023-02-01T04:41:13;5.03;;;1.70;;
72493;SDS011;60520;49.182;-0.348;2023-02-01T04:43:43;3.55;;;1.42;;
72493;SDS011;60520;49.182;-0.348;2023-02-01T04:46:12;3.58;;;1.45;;
72493;SDS011;60520;49.182;-0.348;2023-02-01T04:48:39;3.92;;;1.80;;
72493;SDS011;60520;49.182;-0.348;2023-02-01T04:51:06;4.35;;;1.50;;
72493;SDS011;60520;49.182;-0.348;2023-02-01T04:53:33;4.53;;;1.70;;
72493;SDS011;60520;49.182;-0.348;2023-02-01T04:56:00;6.15;;;1.70;;
72493;SDS011;60520;49.182;-0.348;2023-02-01T04:58:27;4.90;;;1.67;;
72493;SDS011;60520;49.182;-0.348;2023-02-01T05:00:54;4.35;;;1.83;;
72493;SDS011;60520;49.182;-0.348;2023-02-01T05:03:23;3.20;;;1.40;;
72493;SDS011;60520;49.182;-0.348;2023-02-01T05:05:50;6.28;;;1.73;;
72493;SDS011;60520;49.182;-0.348;2023-02-01T05:08:18;5.28;;;1.60;;
72493;SDS011;60520;49.182;-0.348;2023-02-01T05:10:47;3.53;;;1.38;;
72493;SDS011;60520;49.182;-0.348;2023-02-01T05:13:14;5.07;;;1.60;;
72493;SDS011;60520;49.182;-0.348;2023-02-01T05:15:59;3.50;;;1.50;;
72493;SDS011;60520;49.182;-0.348;2023-02-01T05:18:27;3.42;;;1.50;;
72493;SDS011;60520;49.182;-0.348;2023-02-01T05:20:54;5.32;;;1.60;;
72493;SDS011;60520;49.182;-0.348;2023-02-01T05:23:22;4.57;;;1.42;;
72493;SDS011;60520;49.182;-0.348;2023-02-01T05:25:49;4.40;;;1.65;;
72493;SDS011;60520;49.182;-0.348;2023-02-01T05:28:16;3.80;;;1.90;;
72493;SDS011;60520;49.182;-0.348;2023-02-01T05:30:43;4.82;;;1.60;;
72493;SDS011;60520;49.182;-0.348;2023-02-01T05:33:10;4.35;;;1.77;;
72493;SDS011;60520;49.182;-0.348;2023-02-01T05:35:38;5.18;;;1.58;;
72493;SDS011;60520;49.182;-0.348;2023-02-01T05:38:05;5.05;;;1.83;;
72493;SDS011;60520;49.182;-0.348;2023-02-01T05:40:33;4.40;;;1.30;;
72493;SDS011;60520;49.182;-0.348;2023-02-01T05:43:00;3.97;;;1.65;;
72493;SDS011;60520;49.182;-0.348;2023-02-01T05:45:27;4.05;;;1.58;;
72493;SDS011;60520;49.182;-0.348;2023-02-01T05:47:54;3.63;;;1.40;;
72493;SDS011;60520;49.182;-0.348;2023-02-01T05:50:21;3.60;;;1.42;;
72493;SDS011;60520;49.182;-0.348;2023-02-01T05:52:49;4.72;;;1.70;;
72493;SDS011;60520;49.182;-0.348;2023-02-01T05:55:16;5.03;;;1.77;;
72493;SDS011;60520;49.182;-0.348;2023-02-01T05:57:44;4.70;;;1.63;;
72493;SDS011;60520;49.182;-0.348;2023-02-01T06:00:11;5.05;;;1.70;;
72493;SDS011;60520;49.182;-0.348;2023-02-01T06:02:38;4.18;;;1.65;;
72493;SDS011;60520;49.182;-0.348;2023-02-01T06:05:06;5.97;;;1.98;;
72493;SDS011;60520;49.182;-0.348;2023-02-01T06:07:33;3.55;;;1.45;;
72493;SDS011;60520;49.182;-0.348;2023-02-01T06:10:02;4.20;;;1.52;;
72493;SDS011;60520;49.182;-0.348;2023-02-01T06:12:29;4.68;;;1.50;;
72493;SDS011;60520;49.182;-0.348;2023-02-01T06:14:56;3.00;;;1.45;;
72493;SDS011;60520;49.182;-0.348;2023-02-01T06:17:24;4.13;;;1.50;;
72493;SDS011;60520;49.182;-0.348;2023-02-01T06:19:51;5.40;;;1.70;;
72493;SDS011;60520;49.182;-0.348;2023-02-01T06:22:18;5.45;;;1.80;;
72493;SDS011;60520;49.182;-0.348;2023-02-01T06:24:46;4.20;;;1.70;;
72493;SDS011;60520;49.182;-0.348;2023-02-01T06:27:15;5.15;;;1.60;;
72493;SDS011;60520;49.182;-0.348;2023-02-01T06:29:42;5.93;;;1.58;;
72493;SDS011;60520;49.182;-0.348;2023-02-01T06:32:09;4.22;;;1.60;;
72493;SDS011;60520;49.182;-0.348;2023-02-01T06:34:37;3.30;;;1.30;;
72493;SDS011;60520;49.182;-0.348;2023-02-01T06:37:04;4.88;;;1.60;;
72493;SDS011;60520;49.182;-0.348;2023-02-01T06:39:31;4.78;;;1.52;;
72493;SDS011;60520;49.182;-0.348;2023-02-01T06:41:58;4.95;;;1.80;;
72493;SDS011;60520;49.182;-0.348;2023-02-01T06:44:27;3.65;;;1.50;;
72493;SDS011;60520;49.182;-0.348;2023-02-01T06:46:54;4.63;;;1.77;;
72493;SDS011;60520;49.182;-0.348;2023-02-01T06:49:21;5.35;;;2.08;;
72493;SDS011;60520;49.182;-0.348;2023-02-01T06:51:48;5.10;;;1.58;;
72493;SDS011;60520;49.182;-0.348;2023-02-01T06:54:15;4.35;;;1.48;;
72493;SDS011;60520;49.182;-0.348;2023-02-01T06:56:42;5.00;;;1.80;;
72493;SDS011;60520;49.182;-0.348;2023-02-01T06:59:10;4.90;;;1.98;;
72493;SDS011;60520;49.182;-0.348;2023-02-01T07:01:38;5.05;;;1.67;;
72493;SDS011;60520;49.182;-0.348;2023-02-01T07:04:05;2.83;;;1.48;;
72493;SDS011;60520;49.182;-0.348;2023-02-01T07:06:33;3.95;;;1.58;;
72493;SDS011;60520;49.182;-0.348;2023-02-01T07:09:00;4.68;;;1.50;;
72493;SDS011;60520;49.182;-0.348;2023-02-01T07:11:27;3.70;;;1.55;;
72493;SDS011;60520;49.182;-0.348;2023-02-01T07:13:54;2.97;;;1.33;;
72493;SDS011;60520;49.182;-0.348;2023-02-01T07:16:21;3.85;;;1.55;;
72493;SDS011;60520;49.182;-0.348;2023-02-01T07:18:50;4.40;;;1.60;;
72493;SDS011;60520;49.182;-0.348;2023-02-01T07:21:18;4.05;;;1.40;;
72493;SDS011;60520;49.182;-0.348;2023-02-01T07:23:45;3.78;;;1.67;;
72493;SDS011;60520;49.182;-0.348;2023-02-01T07:26:13;5.18;;;1.73;;
72493;SDS011;60520;49.182;-0.348;2023-02-01T07:28:41;4.68;;;1.85;;
72493;SDS011;60520;49.182;-0.348;2023-02-01T07:31:09;4.55;;;1.77;;
72493;SDS011;60520;49.182;-0.348;2023-02-01T07:33:36;6.90;;;1.75;;
72493;SDS011;60520;49.182;-0.348;2023-02-01T07:36:06;4.10;;;1.70;;
72493;SDS011;60520;49.182;-0.348;2023-02-01T07:38:33;4.72;;;1.65;;
72493;SDS011;60520;49.182;-0.348;2023-02-01T07:41:01;5.00;;;1.80;;
72493;SDS011;60520;49.182;-0.348;2023-02-01T07:43:28;3.38;;;1.50;;
72493;SDS011;60520;49.182;-0.348;2023-02-01T07:45:56;3.88;;;1.50;;
72493;SDS011;60520;49.182;-0.348;2023-02-01T07:48:23;3.53;;;1.42;;
72493;SDS011;60520;49.182;-0.348;2023-02-01T07:50:56;3.78;;;1.50;;
72493;SDS011;60520;49.182;-0.348;2023-02-01T07:53:24;6.30;;;1.75;;
72493;SDS011;60520;49.182;-0.348;2023-02-01T07:55:52;5.63;;;1.67;;
72493;SDS011;60520;49.182;-0.348;2023-02-01T07:58:21;5.10;;;1.67;;
72493;SDS011;60520;49.182;-0.348;2023-02-01T08:00:48;2.65;;;1.52;;
72493;SDS011;60520;49.182;-0.348;2023-02-01T08:03:32;5.10;;;1.75;;
72493;SDS011;60520;49.182;-0.348;2023-02-01T08:05:59;3.95;;;1.58;;
72493;SDS011;60520;49.182;-0.348;2023-02-01T08:08:28;4.95;;;1.92;;
72493;SDS011;60520;49.182;-0.348;2023-02-01T08:10:57;4.45;;;1.80;;
72493;SDS011;60520;49.182;-0.348;2023-02-01T08:13:24;4.05;;;1.60;;
72493;SDS011;60520;49.182;-0.348;2023-02-01T08:15:51;3.90;;;1.58;;
72493;SDS011;60520;49.182;-0.348;2023-02-01T08:18:18;4.10;;;1.50;;
72493;SDS011;60520;49.182;-0.348;2023-02-01T08:20:45;4.53;;;1.70;;
72493;SDS011;60520;49.182;-0.348;2023-02-01T08:23:13;5.03;;;1.98;;
72493;SDS011;60520;49.182;-0.348;2023-02-01T08:25:41;5.85;;;1.70;;
72493;SDS011;60520;49.182;-0.348;2023-02-01T08:28:08;5.68;;;1.58;;
72493;SDS011;60520;49.182;-0.348;2023-02-01T08:30:36;3.47;;;1.35;;
72493;SDS011;60520;49.182;-0.348;2023-02-01T08:33:03;5.63;;;1.70;;
72493;SDS011;60520;49.182;-0.348;2023-02-01T08:35:32;4.60;;;1.67;;
72493;SDS011;60520;49.182;-0.348;2023-02-01T08:37:59;7.55;;;1.88;;
72493;SDS011;60520;49.182;-0.348;2023-02-01T08:40:26;2.58;;;1.42;;
72493;SDS011;60520;49.182;-0.348;2023-02-01T08:42:55;3.95;;;1.63;;
72493;SDS011;60520;49.182;-0.348;2023-02-01T08:45:23;4.88;;;1.80;;
72493;SDS011;60520;49.182;-0.348;2023-02-01T08:47:50;3.55;;;1.23;;
72493;SDS011;60520;49.182;-0.348;2023-02-01T08:50:17;3.53;;;1.52;;
72493;SDS011;60520;49.182;-0.348;2023-02-01T08:52:45;6.72;;;1.80;;
72493;SDS011;60520;49.182;-0.348;2023-02-01T08:55:12;3.70;;;1.55;;
72493;SDS011;60520;49.182;-0.348;2023-02-01T08:57:40;4.65;;;1.80;;
72493;SDS011;60520;49.182;-0.348;2023-02-01T09:00:10;4.57;;;1.58;;
72493;SDS011;60520;49.182;-0.348;2023-02-01T09:02:38;5.07;;;1.60;;
72493;SDS011;60520;49.182;-0.348;2023-02-01T09:05:05;4.63;;;1.60;;
72493;SDS011;60520;49.182;-0.348;2023-02-01T09:07:33;5.97;;;1.90;;
72493;SDS011;60520;49.182;-0.348;2023-02-01T09:10:01;5.95;;;1.65;;
72493;SDS011;60520;49.182;-0.348;2023-02-01T09:12:28;4.43;;;1.80;;
72493;SDS011;60520;49.182;-0.348;2023-02-01T09:14:56;4.05;;;1.67;;
72493;SDS011;60520;49.182;-0.348;2023-02-01T09:17:26;8.57;;;2.65;;
72493;SDS011;60520;49.182;-0.348;2023-02-01T09:19:53;6.38;;;2.38;;
72493;SDS011;60520;49.182;-0.348;2023-02-01T09:22:20;19.33;;;2.63;;
72493;SDS011;60520;49.182;-0.348;2023-02-01T09:24:47;21.50;;;2.83;;
72493;SDS011;60520;49.182;-0.348;2023-02-01T09:27:14;27.98;;;3.47;;
72493;SDS011;60520;49.182;-0.348;2023-02-01T09:29:41;26.02;;;3.58;;
72493;SDS011;60520;49.182;-0.348;2023-02-01T09:32:09;22.38;;;3.25;;
72493;SDS011;60520;49.182;-0.348;2023-02-01T09:34:37;23.10;;;3.60;;
72493;SDS011;60520;49.182;-0.348;2023-02-01T09:37:04;15.18;;;3.00;;
72493;SDS011;60520;49.182;-0.348;2023-02-01T09:39:31;15.10;;;2.75;;
72493;SDS011;60520;49.182;-0.348;2023-02-01T09:42:01;14.38;;;2.55;;
72493;SDS011;60520;49.182;-0.348;2023-02-01T09:44:36;10.93;;;2.67;;
72493;SDS011;60520;49.182;-0.348;2023-02-01T09:47:09;12.98;;;2.47;;
72493;SDS011;60520;49.182;-0.348;2023-02-01T09:49:39;10.23;;;2.28;;
72493;SDS011;60520;49.182;-0.348;2023-02-01T09:52:11;10.50;;;2.60;;
72493;SDS011;60520;49.182;-0.348;2023-02-01T09:54:40;13.40;;;2.38;;
72493;SDS011;60520;49.182;-0.348;2023-02-01T09:57:08;9.65;;;2.60;;
72493;SDS011;60520;49.182;-0.348;2023-02-01T09:59:38;13.45;;;2.78;;
72493;SDS011;60520;49.182;-0.348;2023-02-01T10:02:10;10.38;;;2.22;;
72493;SDS011;60520;49.182;-0.348;2023-02-01T10:04:40;9.32;;;2.50;;
72493;SDS011;60520;49.182;-0.348;2023-02-01T10:07:13;9.15;;;2.28;;
72493;SDS011;60520;49.182;-0.348;2023-02-01T10:09:44;9.73;;;2.28;;
72493;SDS011;60520;49.182;-0.348;2023-02-01T10:12:26;8.93;;;2.30;;
72493;SDS011;60520;49.182;-0.348;2023-02-01T10:14:59;9.75;;;2.50;;
72493;SDS011;60520;49.182;-0.348;2023-02-01T10:17:33;9.15;;;2.40;;
72493;SDS011;60520;49.182;-0.348;2023-02-01T10:20:09;8.90;;;2.50;;
72493;SDS011;60520;49.182;-0.348;2023-02-01T10:22:40;10.50;;;2.60;;
72493;SDS011;60520;49.182;-0.348;2023-02-01T10:25:11;10.43;;;2.30;;
72493;SDS011;60520;49.182;-0.348;2023-02-01T10:27:40;8.30;;;2.38;;
72493;SDS011;60520;49.182;-0.348;2023-02-01T10:30:14;11.80;;;2.28;;
72493;SDS011;60520;49.182;-0.348;2023-02-01T10:32:42;6.90;;;2.25;;
72493;SDS011;60520;49.182;-0.348;2023-02-01T10:35:12;11.27;;;2.60;;
72493;SDS011;60520;49.182;-0.348;2023-02-01T10:37:40;9.25;;;2.28;;
72493;SDS011;60520;49.182;-0.348;2023-02-01T10:40:11;6.15;;;2.28;;
72493;SDS011;60520;49.182;-0.348;2023-02-01T10:42:40;16.27;;;3.40;;
72493;SDS011;60520;49.182;-0.348;2023-02-01T10:45:11;8.77;;;2.72;;
72493;SDS011;60520;49.182;-0.348;2023-02-01T10:47:40;14.18;;;2.80;;
72493;SDS011;60520;49.182;-0.348;2023-02-01T10:50:12;8.60;;;2.72;;
72493;SDS011;60520;49.182;-0.348;2023-02-01T10:52:43;11.60;;;2.70;;
72493;SDS011;60520;49.182;-0.348;2023-02-01T10:55:28;9.55;;;2.70;;
72493;SDS011;60520;49.182;-0.348;2023-02-01T10:57:56;9.13;;;2.58;;
72493;SDS011;60520;49.182;-0.348;2023-02-01T11:00:23;10.68;;;2.63;;
72493;SDS011;60520;49.182;-0.348;2023-02-01T11:02:50;16.25;;;3.17;;
72493;SDS011;60520;49.182;-0.348;2023-02-01T11:05:19;19.92;;;3.03;;
72493;SDS011;60520;49.182;-0.348;2023-02-01T11:07:48;13.30;;;2.85;;
72493;SDS011;60520;49.182;-0.348;2023-02-01T11:12:57;17.58;;;3.50;;
72493;SDS011;60520;49.182;-0.348;2023-02-01T11:15:25;10.57;;;2.63;;
72493;SDS011;60520;49.182;-0.348;2023-02-01T11:17:53;12.43;;;2.80;;
72493;SDS011;60520;49.182;-0.348;2023-02-01T11:20:25;15.82;;;3.03;;
72493;SDS011;60520;49.182;-0.348;2023-02-01T11:22:59;8.30;;;2.42;;
72493;SDS011;60520;49.182;-0.348;2023-02-01T11:25:27;13.75;;;2.90;;
72493;SDS011;60520;49.182;-0.348;2023-02-01T11:27:54;12.43;;;3.00;;
72493;SDS011;60520;49.182;-0.348;2023-02-01T11:30:24;10.07;;;2.80;;
72493;SDS011;60520;49.182;-0.348;2023-02-01T11:32:54;11.40;;;2.95;;
72493;SDS011;60520;49.182;-0.348;2023-02-01T11:35:22;8.32;;;2.55;;
72493;SDS011;60520;49.182;-0.348;2023-02-01T11:37:52;10.25;;;2.50;;
72493;SDS011;60520;49.182;-0.348;2023-02-01T11:40:23;9.55;;;2.55;;
72493;SDS011;60520;49.182;-0.348;2023-02-01T11:42:53;11.00;;;2.60;;
72493;SDS011;60520;49.182;-0.348;2023-02-01T11:45:23;14.07;;;2.42;;
72493;SDS011;60520;49.182;-0.348;2023-02-01T11:47:51;7.97;;;2.30;;
72493;SDS011;60520;49.182;-0.348;2023-02-01T11:50:22;7.10;;;2.53;;
72493;SDS011;60520;49.182;-0.348;2023-02-01T11:52:55;12.00;;;2.70;;
72493;SDS011;60520;49.182;-0.348;2023-02-01T11:58:19;9.43;;;2.72;;
72493;SDS011;60520;49.182;-0.348;2023-02-01T12:00:57;11.45;;;2.80;;
72493;SDS011;60520;49.182;-0.348;2023-02-01T12:06:08;10.32;;;2.47;;
72493;SDS011;60520;49.182;-0.348;2023-02-01T12:08:50;10.60;;;2.42;;
72493;SDS011;60520;49.182;-0.348;2023-02-01T12:11:23;12.98;;;2.92;;
72493;SDS011;60520;49.182;-0.348;2023-02-01T12:13:53;9.18;;;2.38;;
72493;SDS011;60520;49.182;-0.348;2023-02-01T12:16:25;8.25;;;2.97;;
72493;SDS011;60520;49.182;-0.348;2023-02-01T12:18:59;9.38;;;2.38;;
72493;SDS011;60520;49.182;-0.348;2023-02-01T12:21:30;11.43;;;2.80;;
72493;SDS011;60520;49.182;-0.348;2023-02-01T12:24:10;10.18;;;2.53;;
72493;SDS011;60520;49.182;-0.348;2023-02-01T12:26:47;10.95;;;2.60;;
72493;SDS011;60520;49.182;-0.348;2023-02-01T12:29:19;10.00;;;2.38;;
72493;SDS011;60520;49.182;-0.348;2023-02-01T12:31:59;9.52;;;2.90;;
72493;SDS011;60520;49.182;-0.348;2023-02-01T12:34:34;12.50;;;2.72;;
72493;SDS011;60520;49.182;-0.348;2023-02-01T12:37:06;7.80;;;2.42;;
72493;SDS011;60520;49.182;-0.348;2023-02-01T12:39:39;11.45;;;2.70;;
72493;SDS011;60520;49.182;-0.348;2023-02-01T12:42:09;8.75;;;2.25;;
72493;SDS011;60520;49.182;-0.348;2023-02-01T12:44:42;6.10;;;2.20;;
72493;SDS011;60520;49.182;-0.348;2023-02-01T12:47:12;12.48;;;2.60;;
72493;SDS011;60520;49.182;-0.348;2023-02-01T12:49:44;14.50;;;2.80;;
72493;SDS011;60520;49.182;-0.348;2023-02-01T12:52:13;7.88;;;2.33;;
72493;SDS011;60520;49.182;-0.348;2023-02-01T12:54:45;9.07;;;2.35;;
72493;SDS011;60520;49.182;-0.348;2023-02-01T12:57:15;10.13;;;2.75;;
72493;SDS011;60520;49.182;-0.348;2023-02-01T12:59:44;8.35;;;2.58;;
72493;SDS011;60520;49.182;-0.348;2023-02-01T13:02:15;12.85;;;2.70;;
72493;SDS011;60520;49.182;-0.348;2023-02-01T13:04:46;7.93;;;2.53;;
72493;SDS011;60520;49.182;-0.348;2023-02-01T13:07:17;8.63;;;2.10;;
72493;SDS011;60520;49.182;-0.348;2023-02-01T13:09:47;7.00;;;2.33;;
72493;SDS011;60520;49.182;-0.348;2023-02-01T13:12:18;11.07;;;2.50;;
72493;SDS011;60520;49.182;-0.348;2023-02-01T13:14:47;9.15;;;2.40;;
72493;SDS011;60520;49.182;-0.348;2023-02-01T13:17:16;9.50;;;2.83;;
72493;SDS011;60520;49.182;-0.348;2023-02-01T13:19:47;15.10;;;2.60;;
72493;SDS011;60520;49.182;-0.348;2023-02-01T13:22:17;11.90;;;2.78;;
72493;SDS011;60520;49.182;-0.348;2023-02-01T13:24:49;15.63;;;2.90;;
72493;SDS011;60520;49.182;-0.348;2023-02-01T13:27:18;10.82;;;2.42;;
72493;SDS011;60520;49.182;-0.348;2023-02-01T13:29:48;11.80;;;2.40;;
72493;SDS011;60520;49.182;-0.348;2023-02-01T13:32:25;20.08;;;2.85;;
72493;SDS011;60520;49.182;-0.348;2023-02-01T13:34:57;13.00;;;2.72;;
72493;SDS011;60520;49.182;-0.348;2023-02-01T13:37:33;11.73;;;2.28;;
72493;SDS011;60520;49.182;-0.348;2023-02-01T13:42:49;10.18;;;2.72;;
72493;SDS011;60520;49.182;-0.348;2023-02-01T13:45:19;10.65;;;2.72;;
72493;SDS011;60520;49.182;-0.348;2023-02-01T13:47:48;10.45;;;2.63;;
72493;SDS011;60520;49.182;-0.348;2023-02-01T13:50:20;11.57;;;2.28;;
72493;SDS011;60520;49.182;-0.348;2023-02-01T13:52:53;7.22;;;2.10;;
72493;SDS011;60520;49.182;-0.348;2023-02-01T13:55:25;7.88;;;2.10;;
72493;SDS011;60520;49.182;-0.348;2023-02-01T13:58:00;7.97;;;2.28;;
72493;SDS011;60520;49.182;-0.348;2023-02-01T14:00:29;6.78;;;2.38;;
72493;SDS011;60520;49.182;-0.348;2023-02-01T14:08:37;7.20;;;2.15;;
72493;SDS011;60520;49.182;-0.348;2023-02-01T14:11:04;9.35;;;2.30;;
72493;SDS011;60520;49.182;-0.348;2023-02-01T14:13:34;8.63;;;2.15;;
72493;SDS011;60520;49.182;-0.348;2023-02-01T14:16:12;6.57;;;2.30;;
72493;SDS011;60520;49.182;-0.348;2023-02-01T14:18:59;8.77;;;2.10;;
72493;SDS011;60520;49.182;-0.348;2023-02-01T14:21:29;11.40;;;2.72;;
72493;SDS011;60520;49.182;-0.348;2023-02-01T14:23:58;8.98;;;2.35;;
72493;SDS011;60520;49.182;-0.348;2023-02-01T14:26:27;8.30;;;2.30;;
72493;SDS011;60520;49.182;-0.348;2023-02-01T14:29:00;11.13;;;2.75;;
72493;SDS011;60520;49.182;-0.348;2023-02-01T14:34:17;9.05;;;2.63;;
72493;SDS011;60520;49.182;-0.348;2023-02-01T14:36:47;16.58;;;2.92;;
72493;SDS011;60520;49.182;-0.348;2023-02-01T14:42:01;25.50;;;3.97;;
72493;SDS011;60520;49.182;-0.348;2023-02-01T14:44:31;11.48;;;2.25;;
72493;SDS011;60520;49.182;-0.348;2023-02-01T14:49:48;10.95;;;2.55;;
72493;SDS011;60520;49.182;-0.348;2023-02-01T14:52:17;9.10;;;2.47;;
72493;SDS011;60520;49.182;-0.348;2023-02-01T14:54:49;10.32;;;2.20;;
72493;SDS011;60520;49.182;-0.348;2023-02-01T14:57:19;10.00;;;2.53;;
72493;SDS011;60520;49.182;-0.348;2023-02-01T14:59:49;9.32;;;2.83;;
72493;SDS011;60520;49.182;-0.348;2023-02-01T15:02:23;14.65;;;2.45;;
72493;SDS011;60520;49.182;-0.348;2023-02-01T15:04:53;9.98;;;2.67;;
72493;SDS011;60520;49.182;-0.348;2023-02-01T15:07:21;12.40;;;2.80;;
72493;SDS011;60520;49.182;-0.348;2023-02-01T15:09:49;9.73;;;2.30;;
72493;SDS011;60520;49.182;-0.348;2023-02-01T15:12:17;13.25;;;3.33;;
72493;SDS011;60520;49.182;-0.348;2023-02-01T15:15:03;15.88;;;2.85;;